createdAt,value
2018-05-21T00:02:43.341Z,14.52
2018-05-21T00:08:47.676Z,14.33
2018-05-21T00:14:52.528Z,14.35
2018-05-21T00:20:57.006Z,14.32
2018-05-21T00:27:01.341Z,14.09
2018-05-21T00:33:06.545Z,13.80
2018-05-21T00:39:11.919Z,13.48
2018-05-21T00:45:16.288Z,13.04
2018-05-21T00:51:21.634Z,13.03
2018-05-21T00:57:26.396Z,12.92
2018-05-21T01:03:30.733Z,12.85
2018-05-21T01:09:35.072Z,12.90
2018-05-21T01:15:39.568Z,12.87
2018-05-21T01:21:44.235Z,12.75
2018-05-21T01:27:49.742Z,12.74
2018-05-21T01:33:54.545Z,12.71
2018-05-21T01:39:58.883Z,12.53
2018-05-21T01:46:03.227Z,12.74
2018-05-21T01:52:08.337Z,12.53
2018-05-21T01:58:12.794Z,12.49
2018-05-21T02:04:17.929Z,12.46
2018-05-21T02:10:22.985Z,12.37
2018-05-21T02:16:27.408Z,12.31
2018-05-21T02:22:31.752Z,12.15
2018-05-21T02:28:36.097Z,12.14
2018-05-21T02:34:40.473Z,11.94
2018-05-21T02:40:44.835Z,11.79
2018-05-21T02:46:49.847Z,11.78
2018-05-21T02:52:55.458Z,11.78
2018-05-21T02:59:00.095Z,11.75
2018-05-21T03:05:04.450Z,11.67
2018-05-21T03:11:08.833Z,11.60
2018-05-21T03:17:13.184Z,11.83
2018-05-21T03:23:17.534Z,11.63
2018-05-21T03:29:22.801Z,11.81
2018-05-21T03:35:27.990Z,11.77
2018-05-21T03:41:32.428Z,11.87
2018-05-21T03:47:37.497Z,11.97
2018-05-21T03:53:42.619Z,11.81
2018-05-21T04:00:04.676Z,11.70
2018-05-21T04:06:09.870Z,11.72
2018-05-21T04:12:15.154Z,11.94
2018-05-21T04:18:19.731Z,11.88
2018-05-21T04:24:25.534Z,11.97
2018-05-21T04:30:29.892Z,12.18
2018-05-21T04:36:34.363Z,12.45
2018-05-21T04:42:39.560Z,12.54
2018-05-21T04:48:44.785Z,12.88
2018-05-21T04:54:49.995Z,13.17
2018-05-21T05:00:55.010Z,13.38
2018-05-21T05:07:00.282Z,13.59
2018-05-21T05:13:04.655Z,13.68
2018-05-21T05:19:09.005Z,13.96
2018-05-21T05:25:13.342Z,14.27
2018-05-21T05:31:17.708Z,14.38
2018-05-21T05:37:22.862Z,14.59
2018-05-21T05:43:27.581Z,14.98
2018-05-21T05:49:32.169Z,15.01
2018-05-21T05:55:36.525Z,15.15
2018-05-21T06:01:40.869Z,15.35
2018-05-21T06:07:45.989Z,15.66
2018-05-21T06:13:51.930Z,16.01
2018-05-21T06:19:56.634Z,16.44
2018-05-21T06:26:01.077Z,16.81
2018-05-21T06:32:06.216Z,17.15
2018-05-21T06:38:10.806Z,17.70
2018-05-21T06:44:15.177Z,18.35
2018-05-21T06:50:21.116Z,18.55
2018-05-21T06:56:25.620Z,19.12
2018-05-21T07:02:29.930Z,19.47
2018-05-21T07:08:34.688Z,20.05
2018-05-21T07:14:39.026Z,20.30
2018-05-21T07:20:43.478Z,21.07
2018-05-21T07:26:48.910Z,21.73
2018-05-21T07:32:54.275Z,21.89
2018-05-21T07:38:59.389Z,22.44
2018-05-21T07:45:03.747Z,22.76
2018-05-21T07:51:08.860Z,22.91
2018-05-21T07:57:13.271Z,23.11
2018-05-21T08:03:17.714Z,23.48
2018-05-21T08:09:22.389Z,23.84
2018-05-21T08:15:26.737Z,23.91
2018-05-21T08:21:31.852Z,24.25
2018-05-21T08:27:36.315Z,24.68
2018-05-21T08:33:41.423Z,25.31
2018-05-21T08:39:45.780Z,25.65
2018-05-21T08:45:51.010Z,25.43
2018-05-21T08:51:55.397Z,25.76
2018-05-21T08:57:59.735Z,26.15
2018-05-21T09:04:04.135Z,26.10
2018-05-21T09:10:08.756Z,26.66
2018-05-21T09:16:12.920Z,26.85
2018-05-21T09:22:17.445Z,26.83
2018-05-21T09:28:21.905Z,27.27
2018-05-21T09:34:27.012Z,27.70
2018-05-21T09:40:31.414Z,27.30
2018-05-21T09:46:35.911Z,27.50
2018-05-21T09:52:41.085Z,27.37
2018-05-21T09:58:45.440Z,27.43
2018-05-21T10:04:49.972Z,28.03
2018-05-21T10:10:54.981Z,28.24
2018-05-21T10:16:59.497Z,28.49
2018-05-21T10:23:03.969Z,28.80
2018-05-21T10:29:08.301Z,29.13
2018-05-21T10:35:13.414Z,28.82
2018-05-21T10:41:17.916Z,28.87
2018-05-21T10:47:23.114Z,28.55
2018-05-21T10:53:27.596Z,28.93
2018-05-21T10:59:32.013Z,28.50
2018-05-21T11:05:36.446Z,28.90
2018-05-21T11:11:40.804Z,29.66
2018-05-21T11:17:45.160Z,30.48
2018-05-21T11:23:50.317Z,30.37
2018-05-21T11:29:54.994Z,30.53
2018-05-21T11:35:59.361Z,30.60
2018-05-21T11:42:03.799Z,30.70
2018-05-21T11:48:08.299Z,30.93
2018-05-21T11:54:12.648Z,31.26
2018-05-21T12:00:16.997Z,31.40
2018-05-21T12:06:21.359Z,32.78
2018-05-21T12:12:26.109Z,32.87
2018-05-21T12:18:30.571Z,33.84
2018-05-21T12:24:34.917Z,34.26
2018-05-21T12:30:39.270Z,34.50
2018-05-21T12:36:43.590Z,33.90
2018-05-21T12:42:48.088Z,33.37
2018-05-21T12:48:52.693Z,34.44
2018-05-21T12:54:57.123Z,33.57
2018-05-21T13:01:01.488Z,33.82
2018-05-21T13:07:05.972Z,34.40
2018-05-21T13:13:10.304Z,35.49
2018-05-21T13:19:14.663Z,35.95
2018-05-21T13:25:20.025Z,35.99
2018-05-21T13:31:25.154Z,35.31
2018-05-21T13:37:29.678Z,35.90
2018-05-21T13:43:34.141Z,35.71
2018-05-21T13:49:39.282Z,36.26
2018-05-21T13:55:43.583Z,36.20
2018-05-21T14:01:47.988Z,36.73
2018-05-21T14:07:53.550Z,36.68
2018-05-21T14:13:57.904Z,36.73
2018-05-21T14:20:02.254Z,36.60
2018-05-21T14:26:06.635Z,36.54
2018-05-21T14:32:11.026Z,36.16
2018-05-21T14:38:18.145Z,36.65
2018-05-21T14:44:22.971Z,37.39
2018-05-21T14:50:27.313Z,37.23
2018-05-21T14:56:31.681Z,37.26
2018-05-21T15:02:36.081Z,37.99
2018-05-21T15:08:40.420Z,37.67
2018-05-21T15:14:44.762Z,37.55
2018-05-21T15:20:50.529Z,38.05
2018-05-21T15:26:55.204Z,38.27
2018-05-21T15:32:59.578Z,37.04
2018-05-21T15:39:03.962Z,36.97
2018-05-21T15:45:08.328Z,36.45
2018-05-21T15:51:12.683Z,35.76
2018-05-21T15:57:17.085Z,35.72
2018-05-21T16:03:21.764Z,35.36
2018-05-21T16:09:26.077Z,35.24
2018-05-21T16:15:30.468Z,34.91
2018-05-21T16:21:35.588Z,34.83
2018-05-21T16:27:40.045Z,35.16
2018-05-21T16:33:45.172Z,34.85
2018-05-21T16:39:49.727Z,35.41
2018-05-21T16:45:55.051Z,37.31
2018-05-21T16:51:59.393Z,37.96
2018-05-21T16:58:03.752Z,38.34
2018-05-21T17:04:08.874Z,38.37
2018-05-21T17:10:13.260Z,37.54
2018-05-21T17:16:17.645Z,37.49
2018-05-21T17:22:22.328Z,38.19
2018-05-21T17:28:26.827Z,38.42
2018-05-21T17:34:32.870Z,38.59
2018-05-21T17:40:37.947Z,37.67
2018-05-21T17:46:42.326Z,37.68
2018-05-21T17:52:46.931Z,37.32
2018-05-21T17:58:51.580Z,36.64
2018-05-21T18:04:56.043Z,36.35
2018-05-21T18:11:00.518Z,35.93
2018-05-21T18:17:04.892Z,34.69
2018-05-21T18:23:09.245Z,34.19
2018-05-21T18:29:13.597Z,33.17
2018-05-21T18:35:17.954Z,31.97
2018-05-21T18:41:23.018Z,29.12
2018-05-21T18:47:27.350Z,26.81
2018-05-21T18:53:31.744Z,25.12
2018-05-21T18:59:36.090Z,24.22
2018-05-21T19:05:40.457Z,23.36
2018-05-21T19:11:44.988Z,22.62
2018-05-21T19:17:49.634Z,22.03
2018-05-21T19:23:54.508Z,21.38
2018-05-21T19:29:58.878Z,20.88
2018-05-21T19:36:03.229Z,20.61
2018-05-21T19:42:08.355Z,20.42
2018-05-21T19:48:12.699Z,20.30
2018-05-21T19:54:17.834Z,20.31
2018-05-21T20:00:22.410Z,20.12
2018-05-21T20:06:26.786Z,20.20
2018-05-21T20:12:31.265Z,20.03
2018-05-21T20:18:35.600Z,20.08
2018-05-21T20:24:40.717Z,20.05
2018-05-21T20:30:45.174Z,19.83
2018-05-21T20:36:49.780Z,19.52
2018-05-21T20:42:54.266Z,19.40
2018-05-21T20:48:58.635Z,19.22
2018-05-21T20:55:02.993Z,19.22
2018-05-21T21:01:07.323Z,19.10
2018-05-21T21:07:11.643Z,18.95
2018-05-21T21:13:16.042Z,18.88
2018-05-21T21:19:21.127Z,18.63
2018-05-21T21:25:25.539Z,18.54
2018-05-21T21:31:29.889Z,18.46
2018-05-21T21:37:34.407Z,18.22
2018-05-21T21:43:38.915Z,18.03
2018-05-21T21:49:44.102Z,17.72
2018-05-21T21:55:48.480Z,17.59
2018-05-21T22:01:52.844Z,17.21
2018-05-21T22:07:57.267Z,17.06
2018-05-21T22:14:01.624Z,17.06
2018-05-21T22:20:05.971Z,16.92
2018-05-21T22:26:10.337Z,16.69
2018-05-21T22:32:15.457Z,16.65
2018-05-21T22:38:19.886Z,16.29
2018-05-21T22:44:24.754Z,16.24
2018-05-21T22:50:29.120Z,16.13
2018-05-21T22:56:33.463Z,15.86
2018-05-21T23:02:37.815Z,15.92
2018-05-21T23:08:42.160Z,15.96
2018-05-21T23:14:46.570Z,15.89
2018-05-21T23:20:51.215Z,15.90
2018-05-21T23:26:55.771Z,15.89
2018-05-21T23:33:00.236Z,15.90
2018-05-21T23:39:05.322Z,16.38
2018-05-21T23:45:09.686Z,16.23
2018-05-21T23:51:14.070Z,16.27
2018-05-21T23:57:18.416Z,16.43
